Time;durP1;ratioP1;P1;durP2;ratioP2;P2;SDS_P1;SDS_P2;PMS_P1;PMS_P2;Temp;Humidity;BMP_temperature;BMP_pressure;BME280_temperature;BME280_humidity;BME280_pressure;Samples;Min_cycle;Max_cycle;Signal;HPM_P1;HPM_P2
2023/06/10 00:02:18;;;;;;;;;12.25;9.75;;;;;21.50;57.84;100411.94;146617;667;46014;-64
2023/06/10 00:05:16;;;;;;;;;8.75;8.75;;;;;21.55;57.93;100410.19;146610;566;47012;-65
2023/06/10 00:08:37;;;;;;;;;9.75;9.25;;;;;21.59;58.01;100411.09;146614;577;46020;-65
2023/06/10 00:11:38;;;;;;;;;10.50;10.50;;;;;21.54;57.78;100413.72;146615;655;46916;-66
2023/06/10 00:14:53;;;;;;;;;9.00;9.00;;;;;21.48;57.66;100416.34;146619;580;46021;-65
2023/06/10 00:18:03;;;;;;;;;8.00;8.00;;;;;21.39;58.09;100413.69;146617;686;46012;-64
2023/06/10 00:21:09;;;;;;;;;7.67;6.67;;;;;21.31;58.39;100410.09;146622;580;46021;-64
2023/06/10 00:24:21;;;;;;;;;9.00;9.00;;;;;21.20;58.28;100405.69;146620;576;46012;-64
2023/06/10 00:27:14;;;;;;;;;11.50;10.25;;;;;21.15;59.49;100410.09;146621;569;47010;-64
2023/06/10 00:30:38;;;;;;;;;11.75;8.75;;;;;21.12;59.48;100406.53;146613;710;47016;-64
2023/06/10 00:33:38;;;;;;;;;9.75;8.50;;;;;21.16;60.58;100408.31;146616;607;47022;-64
2023/06/10 00:36:45;;;;;;;;;;;;;;;;;;;;;
2023/06/10 00:39:47;;;;;;;;;8.75;8.75;;;;;21.32;60.39;100399.56;146611;563;47010;-64
2023/06/10 00:42:42;;;;;;;;;10.25;9.75;;;;;21.38;60.83;100393.47;146615;592;47014;-63
2023/06/10 00:45:50;;;;;;;;;11.50;10.00;;;;;21.47;59.96;100395.25;146621;569;46010;-64
2023/06/10 00:48:52;;;;;;;;;11.00;9.50;;;;;21.55;60.28;100398.75;146616;589;46012;-66
2023/06/10 00:51:51;;;;;;;;;12.00;10.75;;;;;21.60;60.50;100392.63;146618;589;46020;-64
2023/06/10 00:55:07;;;;;;;;;12.00;10.33;;;;;21.64;59.88;100404.91;146614;579;46014;-63
2023/06/10 00:58:25;;;;;;;;;12.00;12.00;;;;;19.42;59.02;100021.50;146617;693;46010;-64
2023/06/10 01:01:30;;;;;;;;;11.00;10.00;;;;;19.08;59.91;99968.78;146617;569;46016;-63
2023/06/10 01:04:30;;;;;;;;;11.00;10.25;;;;;21.55;61.48;100407.53;146619;704;47011;-64
2023/06/10 01:07:45;;;;;;;;;9.25;9.25;;;;;21.49;60.94;100398.75;146612;634;47014;-63
2023/06/10 01:10:52;;;;;;;;;14.75;11.50;;;;;21.45;60.98;100401.38;146618;589;46010;-63
2023/06/10 01:13:52;;;;;;;;;10.25;10.25;;;;;21.09;62.19;100338.87;146612;570;46016;-63
2023/06/10 01:16:58;;;;;;;;;14.75;12.50;;;;;21.39;63.06;100397.84;146619;650;46020;-63
2023/06/10 01:20:11;;;;;;;;;15.00;12.25;;;;;21.27;63.29;100401.31;146613;579;46017;-63
2023/06/10 01:23:12;;;;;;;;;11.75;11.50;;;;;21.12;64.91;100390.72;146615;579;47027;-62
2023/06/10 01:26:13;;;;;;;;;14.25;12.50;;;;;21.07;64.26;100395.12;146616;608;47012;-63
2023/06/10 01:29:37;;;;;;;;;;;;;;;;;;;;;
2023/06/10 01:33:07;;;;;;;;;14.00;12.00;;;;;20.92;63.91;100388.03;146611;656;46914;-63
2023/06/10 01:36:10;;;;;;;;;10.00;8.75;;;;;20.86;64.40;100380.09;146610;664;48008;-62
2023/06/10 01:39:26;;;;;;;;;8.75;8.75;;;;;20.84;64.20;100380.09;146614;687;46016;-62
2023/06/10 01:42:21;;;;;;;;;13.75;12.25;;;;;20.86;65.07;100382.72;146612;583;46020;-64
2023/06/10 01:45:35;;;;;;;;;12.33;10.00;;;;;20.89;63.62;100378.34;146611;699;46022;-63
2023/06/10 01:48:41;;;;;;;;;11.00;11.00;;;;;20.90;63.90;100374.84;146616;594;46011;-63
2023/06/10 01:51:39;;;;;;;;;11.00;10.25;;;;;20.87;64.58;100368.66;146614;741;47913;-63
2023/06/10 01:54:41;;;;;;;;;;;;;;;;;;;;;
2023/06/10 01:57:53;;;;;;;;;;;;;;;;;;;;;
2023/06/10 02:01:00;;;;;;;;;9.75;9.75;;;;;20.80;63.37;100370.41;146615;608;46014;-63
2023/06/10 02:04:11;;;;;;;;;10.00;9.25;;;;;20.75;63.43;100354.59;146618;570;47014;-64
2023/06/10 02:07:05;;;;;;;;;9.75;8.75;;;;;20.77;64.10;100358.09;146620;637;46020;-63
2023/06/10 02:10:04;;;;;;;;;11.25;11.25;;;;;20.80;63.00;100362.50;146617;591;46914;-63
2023/06/10 02:13:08;;;;;;;;;11.75;9.00;;;;;20.82;62.64;100368.66;146613;665;46020;-61
2023/06/10 02:16:21;;;;;;;;;;;;;;;;;;;;;
2023/06/10 02:19:26;;;;;;;;;10.75;10.75;;;;;20.87;62.46;100366.03;146621;594;46010;-62
2023/06/10 02:22:43;;;;;;;;;11.00;10.00;;;;;20.78;61.79;100364.28;146610;582;47014;-62
2023/06/10 02:25:39;;;;;;;;;10.75;9.50;;;;;20.72;62.09;100370.38;146620;632;46031;-62
2023/06/10 02:28:37;;;;;;;;;10.00;9.50;;;;;20.70;62.02;100376.53;146616;563;46016;-63
2023/06/10 02:31:31;;;;;;;;;10.00;9.25;;;;;20.67;62.54;100380.00;146616;673;46915;-63
2023/06/10 02:34:36;;;;;;;;;9.75;9.75;;;;;20.64;62.30;100376.50;146617;638;46016;-62
2023/06/10 02:37:32;;;;;;;;;8.25;7.50;;;;;20.56;64.08;100380.84;146621;674;46010;-62
2023/06/10 02:40:42;;;;;;;;;13.50;11.00;;;;;20.47;63.50;100384.28;146618;711;46017;-62
2023/06/10 02:43:34;;;;;;;;;10.00;9.25;;;;;20.41;65.14;100395.66;146614;565;46010;-65
2023/06/10 02:46:38;;;;;;;;;10.50;9.50;;;;;20.35;65.35;100398.25;146616;579;46017;-66
2023/06/10 02:49:36;;;;;;;;;11.75;11.25;;;;;20.31;65.67;100401.72;146619;640;46020;-66
2023/06/10 02:52:36;;;;;;;;;9.00;9.00;;;;;20.25;66.29;100399.09;146616;603;46016;-65
2023/06/10 02:55:35;;;;;;;;;9.00;7.50;;;;;20.23;65.49;100411.34;146618;675;46021;-68
2023/06/10 02:58:58;;;;;;;;;12.25;10.50;;;;;20.27;67.21;100413.13;146618;603;46016;-66
2023/06/10 03:02:01;;;;;;;;;10.25;9.00;;;;;20.27;66.46;100413.13;146617;669;47010;-64
2023/06/10 03:05:14;;;;;;;;;10.25;9.50;;;;;20.32;66.32;100415.78;146617;589;46016;-64
2023/06/10 03:08:30;;;;;;;;;9.25;9.00;;;;;20.39;65.33;100417.59;146619;719;46036;-63
2023/06/10 03:11:25;;;;;;;;;13.00;11.50;;;;;20.46;65.85;100409.72;146618;686;46014;-64
2023/06/10 03:14:38;;;;;;;;;11.75;11.00;;;;;20.49;65.41;100406.22;146609;593;47010;-64
2023/06/10 03:17:37;;;;;;;;;11.25;9.25;;;;;20.49;64.64;100407.09;146614;584;47012;-64
2023/06/10 03:20:44;;;;;;;;;9.00;8.50;;;;;17.76;63.06;99942.41;146622;688;46020;-64
2023/06/10 03:23:45;;;;;;;;;11.00;11.00;;;;;20.51;64.45;100409.75;146617;579;46012;-63
2023/06/10 03:26:54;;;;;;;;;9.75;9.00;;;;;20.56;64.32;100410.72;146620;665;46020;-63
2023/06/10 03:29:52;;;;;;;;;8.75;7.75;;;;;20.64;64.50;100414.25;146615;618;46012;-63
2023/06/10 03:32:54;;;;;;;;;10.25;10.25;;;;;20.72;64.31;100414.31;146620;667;46011;-64
2023/06/10 03:35:48;;;;;;;;;10.00;9.50;;;;;20.80;64.14;100420.47;146613;602;47012;-62
2023/06/10 03:38:51;;;;;;;;;11.75;9.75;;;;;20.86;63.98;100414.34;146621;577;47010;-63
2023/06/10 03:42:06;;;;;;;;;12.25;10.00;;;;;20.90;63.75;100418.75;146618;570;46016;-62
2023/06/10 03:44:58;;;;;;;;;10.75;9.50;;;;;20.87;64.33;100422.28;146613;730;46010;-62
2023/06/10 03:48:10;;;;;;;;;9.25;9.25;;;;;20.84;63.13;100424.00;146615;597;46040;-63
2023/06/10 03:51:19;;;;;;;;;11.50;10.50;;;;;20.81;63.62;100431.88;146619;615;46010;-64
2023/06/10 03:54:23;;;;;;;;;11.00;9.00;;;;;20.81;64.18;100438.06;146615;609;46016;-64
2023/06/10 03:57:27;;;;;;;;;11.25;9.00;;;;;20.86;64.01;100438.06;146618;593;46020;-65
2023/06/10 04:00:33;;;;;;;;;12.50;9.50;;;;;20.93;64.67;100429.31;146614;569;46020;-64
2023/06/10 04:03:40;;;;;;;;;10.00;10.00;;;;;20.98;64.71;100428.47;146620;632;46010;-64
2023/06/10 04:06:35;;;;;;;;;10.75;10.75;;;;;21.06;66.34;100432.88;146708;570;46012;-65
2023/06/10 04:09:38;;;;;;;;;12.00;10.00;;;;;21.25;65.29;100426.81;146619;602;46016;-65
2023/06/10 04:12:46;;;;;;;;;14.00;12.00;;;;;21.43;64.67;100423.34;146618;689;47010;-64
2023/06/10 04:15:45;;;;;;;;;12.50;12.00;;;;;21.58;65.25;100420.75;146614;564;46917;-64
2023/06/10 04:18:43;;;;;;;;;11.00;10.75;;;;;21.78;64.37;100427.81;146619;594;46010;-64
2023/06/10 04:21:37;;;;;;;;;11.75;9.75;;;;;21.91;65.65;100422.53;146614;576;47918;-64
2023/06/10 04:24:40;;;;;;;;;13.50;12.75;;;;;22.08;65.37;100419.87;146630;621;46010;-67
2023/06/10 04:27:41;;;;;;;;;12.00;9.75;;;;;22.26;64.18;100424.31;146617;566;47012;-66
2023/06/10 04:30:55;;;;;;;;;;;;;;;;;;;;;
2023/06/10 04:33:56;;;;;;;;;11.67;11.67;;;;;22.60;62.58;100430.41;146616;573;46016;-65
2023/06/10 04:36:51;;;;;;;;;15.75;12.75;;;;;22.76;62.64;100431.22;146618;594;46021;-64
2023/06/10 04:40:00;;;;;;;;;12.75;11.50;;;;;22.91;61.50;100432.94;146613;708;48020;-65
2023/06/10 04:43:14;;;;;;;;;13.00;12.00;;;;;23.10;60.91;100430.25;146621;579;46011;-64
2023/06/10 04:46:16;;;;;;;;;13.25;13.00;;;;;23.28;60.04;100431.03;146610;628;49014;-63
2023/06/10 04:49:23;;;;;;;;;9.50;7.50;;;;;23.47;59.61;100421.22;146620;563;46020;-63
2023/06/10 04:52:24;;;;;;;;;11.75;10.00;;;;;23.64;59.08;100423.75;146620;616;46016;-63
2023/06/10 04:55:34;;;;;;;;;10.50;10.25;;;;;23.77;58.58;100429.87;146619;582;46020;-63
2023/06/10 04:58:32;;;;;;;;;11.33;11.00;;;;;23.93;58.87;100430.66;146616;569;46016;-64
2023/06/10 05:01:33;;;;;;;;;12.50;12.50;;;;;24.07;58.92;100423.44;146620;600;46020;-64
2023/06/10 05:04:28;;;;;;;;;12.25;11.00;;;;;24.21;58.48;100431.28;146615;572;46016;-63
2023/06/10 05:07:44;;;;;;;;;14.75;13.00;;;;;24.35;57.47;100433.78;146610;564;47010;-63
2023/06/10 05:10:50;;;;;;;;;14.75;14.75;;;;;24.48;56.86;100437.22;146609;575;47014;-63
2023/06/10 05:14:20;;;;;;;;;;;;;;;;;;;;;
2023/06/10 05:17:25;;;;;;;;;14.00;14.00;;;;;24.75;56.75;100444.00;146610;565;46016;-63
2023/06/10 05:20:18;;;;;;;;;14.00;14.00;;;;;24.85;56.05;100435.91;146612;583;47011;-63
2023/06/10 05:23:20;;;;;;;;;13.25;12.25;;;;;24.95;55.78;100433.16;146610;592;47012;-62
2023/06/10 05:26:31;;;;;;;;;15.50;13.00;;;;;25.11;55.72;100437.37;146610;643;46021;-62
2023/06/10 05:29:33;;;;;;;;;15.00;14.00;;;;;25.28;55.50;100438.06;146608;564;46017;-65
2023/06/10 05:32:34;;;;;;;;;14.75;14.25;;;;;25.46;55.25;100433.41;146613;572;46020;-65
2023/06/10 05:35:42;;;;;;;;;12.75;11.25;;;;;25.62;55.59;100434.91;146607;701;46014;-64
2023/06/10 05:38:45;;;;;;;;;15.50;14.00;;;;;25.75;55.18;100433.81;146610;658;47010;-64
2023/06/10 05:41:42;;;;;;;;;12.00;12.00;;;;;25.91;54.91;100436.25;146608;634;47015;-64
2023/06/10 05:44:41;;;;;;;;;12.33;11.67;;;;;26.03;54.79;100444.03;146611;629;47010;-64
2023/06/10 05:47:39;;;;;;;;;13.75;13.25;;;;;26.14;54.80;100441.22;146607;613;46016;-63
2023/06/10 05:50:42;;;;;;;;;19.00;18.00;;;;;26.21;54.51;100434.88;146610;578;46027;-64
2023/06/10 05:53:46;;;;;;;;;;;;;;;;;;;;;
2023/06/10 05:56:50;;;;;;;;;11.25;10.25;;;;;26.33;54.62;100431.13;146612;579;46010;-64
2023/06/10 05:59:53;;;;;;;;;11.00;11.00;;;;;26.32;54.19;100437.31;146609;603;46016;-64
2023/06/10 06:02:55;;;;;;;;;14.00;11.67;;;;;26.31;54.42;100428.47;146615;673;46020;-64
2023/06/10 06:05:47;;;;;;;;;11.75;10.50;;;;;26.40;53.73;100430.09;146607;567;47012;-64
2023/06/10 06:08:40;;;;;;;;;9.75;9.00;;;;;26.45;53.59;100421.16;146611;596;47010;-64
2023/06/10 06:11:35;;;;;;;;;7.67;7.67;;;;;26.48;51.97;100428.19;146617;601;46016;-65
2023/06/10 06:14:36;;;;;;;;;10.33;9.00;;;;;26.41;50.10;100416.75;146620;593;46010;-65
2023/06/10 06:17:28;;;;;;;;;0.00;0.00;;;;;26.33;51.79;100423.16;146618;591;47012;-64
2023/06/10 06:20:22;;;;;;;;;11.00;11.00;;;;;26.31;51.65;100425.81;146618;621;47012;-64
2023/06/10 06:23:16;;;;;;;;;10.00;8.33;;;;;26.33;50.51;100421.38;146611;622;47012;-64
2023/06/10 06:26:07;;;;;;;;;9.00;8.33;;;;;26.35;51.46;100419.53;146621;579;47010;-64
2023/06/10 06:29:00;;;;;;;;;9.25;9.25;;;;;26.34;51.17;100423.09;146614;581;46016;-64
2023/06/10 06:31:52;;;;;;;;;9.25;8.00;;;;;26.32;51.05;100426.69;146614;649;46020;-65
2023/06/10 06:34:45;;;;;;;;;10.00;10.00;;;;;26.34;51.26;100424.91;146615;597;47017;-65
2023/06/10 06:37:36;;;;;;;;;11.00;9.00;;;;;26.40;51.83;100422.12;146614;588;46020;-66
2023/06/10 06:40:33;;;;;;;;;8.25;8.00;;;;;26.46;51.88;100417.56;146616;610;47925;-65
2023/06/10 06:43:43;;;;;;;;;11.00;8.33;;;;;26.62;51.55;100415.53;146623;585;46030;-64
2023/06/10 06:46:41;;;;;;;;;8.33;8.00;;;;;26.69;51.16;100417.13;146618;615;46014;-70
2023/06/10 06:49:48;;;;;;;;;8.33;7.00;;;;;26.77;51.25;100417.00;146623;587;46021;-67
2023/06/10 06:52:43;;;;;;;;;11.33;9.00;;;;;26.83;50.66;100411.56;146618;573;46915;-66
2023/06/10 06:55:37;;;;;;;;;8.50;7.25;;;;;26.91;50.96;100420.25;146617;687;46020;-66
2023/06/10 06:58:36;;;;;;;;;10.33;9.33;;;;;26.98;50.29;100412.12;146618;598;46012;-65
2023/06/10 07:01:29;;;;;;;;;10.00;8.67;;;;;27.00;50.27;100411.19;146622;552;46010;-65
2023/06/10 07:04:24;;;;;;;;;8.00;8.00;;;;;26.94;50.72;100401.56;146617;564;46017;-65
2023/06/10 07:07:54;;;;;;;;;11.00;10.00;;;;;26.93;51.33;100388.28;146621;563;47010;-66
2023/06/10 07:10:50;;;;;;;;;9.00;9.00;;;;;27.07;51.31;100396.87;146609;589;46016;-66
2023/06/10 07:14:00;;;;;;;;;11.33;9.33;;;;;27.20;51.71;100385.94;146621;581;46020;-66
2023/06/10 07:17:09;;;;;;;;;10.67;10.00;;;;;27.35;50.86;100383.84;146617;635;46016;-65
2023/06/10 07:20:14;;;;;;;;;9.50;8.75;;;;;27.49;49.75;100390.63;146614;687;46010;-66
2023/06/10 07:23:06;;;;;;;;;6.00;6.00;;;;;27.50;48.59;100390.56;146617;573;47014;-65
2023/06/10 07:26:06;;;;;;;;;7.67;7.33;;;;;27.43;50.03;100401.41;146623;589;46010;-65
2023/06/10 07:29:01;;;;;;;;;10.00;10.00;;;;;27.36;50.30;100387.38;146616;604;46026;-66
2023/06/10 07:32:04;;;;;;;;;12.33;10.67;;;;;27.29;50.96;100391.06;146615;608;46020;-65
2023/06/10 07:35:18;;;;;;;;;;;;;;;;;;;;;
2023/06/10 07:38:13;;;;;;;;;13.75;11.00;;;;;27.23;51.22;100392.13;146620;697;47020;-65
2023/06/10 07:41:10;;;;;;;;;8.33;7.67;;;;;27.24;50.59;100406.28;146609;564;46033;-65
2023/06/10 07:44:10;;;;;;;;;9.00;8.00;;;;;27.27;50.95;100393.78;146620;571;46026;-66
2023/06/10 07:47:08;;;;;;;;;8.67;8.67;;;;;27.26;50.15;100391.12;146612;609;47016;-66
2023/06/10 07:50:19;;;;;;;;;6.67;5.00;;;;;27.30;49.92;100391.06;146621;593;46021;-66
2023/06/10 07:53:25;;;;;;;;;9.33;9.33;;;;;27.41;50.18;100388.12;146614;599;47012;-66
2023/06/10 07:56:07;;;;;;;;;8.25;8.00;;;;;27.54;48.66;100384.28;146703;565;46012;-66
2023/06/10 07:59:26;;;;;;;;;9.67;8.67;;;;;27.75;49.60;100382.00;146619;611;46012;-66
2023/06/10 08:02:32;;;;;;;;;8.00;8.00;;;;;27.96;48.90;100385.94;146623;576;47010;-65
2023/06/10 08:05:32;;;;;;;;;8.00;8.00;;;;;28.12;46.19;100386.41;146617;646;47012;-65
2023/06/10 08:08:41;;;;;;;;;8.67;8.33;;;;;28.11;44.95;100390.88;146623;602;47010;-65
2023/06/10 08:11:33;;;;;;;;;7.33;7.33;;;;;28.05;43.92;100383.91;146621;581;46012;-67
2023/06/10 08:14:45;;;;;;;;;9.00;9.00;;;;;28.02;43.43;100377.78;146625;617;46010;-64
2023/06/10 08:17:40;;;;;;;;;8.00;8.00;;;;;28.00;42.98;100382.28;146618;566;46016;-66
2023/06/10 08:20:38;;;;;;;;;5.00;5.00;;;;;28.07;43.54;100378.56;146619;566;47012;-66
2023/06/10 08:23:35;;;;;;;;;6.33;6.33;;;;;28.23;44.80;100377.22;146619;584;47012;-66
2023/06/10 08:26:31;;;;;;;;;7.67;7.33;;;;;28.37;43.85;100371.50;146621;565;46010;-66
2023/06/10 08:29:37;;;;;;;;;;;;;;;;;;;;;
2023/06/10 08:32:33;;;;;;;;;7.33;6.33;;;;;28.62;44.12;100363.72;146620;606;47013;-66
2023/06/10 08:35:36;;;;;;;;;5.33;4.67;;;;;28.69;43.83;100357.28;146615;608;47016;-66
2023/06/10 08:38:33;;;;;;;;;7.00;7.00;;;;;28.71;43.45;100358.09;146622;593;47012;-67
2023/06/10 08:41:39;;;;;;;;;7.00;7.00;;;;;28.71;42.82;100362.56;146619;597;46017;-66
2023/06/10 08:44:38;;;;;;;;;8.67;7.00;;;;;28.67;41.68;100360.91;146621;638;47020;-67
2023/06/10 08:47:57;;;;;;;;;11.33;9.00;;;;;28.72;43.46;100350.97;146617;571;46012;-66
2023/06/10 08:51:06;;;;;;;;;;;;;;;;;;;;;
2023/06/10 08:54:23;;;;;;;;;8.67;8.00;;;;;28.84;43.60;100355.94;146618;652;46016;-67
2023/06/10 08:57:30;;;;;;;;;8.33;7.33;;;;;28.92;44.42;100353.06;146621;564;46012;-66
2023/06/10 09:00:49;;;;;;;;;5.67;5.67;;;;;29.03;45.91;100345.63;146621;598;46033;-66
2023/06/10 09:03:45;;;;;;;;;9.67;7.67;;;;;29.10;45.87;100343.66;146619;601;46021;-66
2023/06/10 09:06:45;;;;;;;;;8.33;7.00;;;;;29.09;47.05;100350.75;146617;571;46037;-67
2023/06/10 09:09:59;;;;;;;;;11.00;9.00;;;;;29.06;45.75;100350.84;146622;664;46020;-65
2023/06/10 09:13:06;;;;;;;;;7.67;7.00;;;;;29.00;47.15;100341.22;146620;600;46014;-66
2023/06/10 09:16:17;;;;;;;;;9.33;8.00;;;;;28.86;47.29;100329.22;146621;620;46033;-65
2023/06/10 09:19:25;;;;;;;;;6.67;6.67;;;;;28.74;46.43;100341.13;146618;564;46017;-66
2023/06/10 09:22:48;;;;;;;;;;;;;;;;;;;;;
2023/06/10 09:25:46;;;;;;;;;9.00;7.67;;;;;28.45;46.77;100334.88;146613;574;47914;-65
2023/06/10 09:29:20;;;;;;;;;11.67;8.67;;;;;27.37;47.14;100147.72;146622;653;46020;-65
2023/06/10 09:32:23;;;;;;;;;9.00;9.00;;;;;28.59;46.34;100333.59;146619;615;46016;-66
2023/06/10 09:35:24;;;;;;;;;8.67;7.67;;;;;28.67;47.35;100328.91;146619;565;47010;-65
2023/06/10 09:38:29;;;;;;;;;9.67;8.00;;;;;28.80;47.30;100332.94;146617;612;46016;-66
2023/06/10 09:41:39;;;;;;;;;8.33;8.00;;;;;28.93;47.71;100326.31;146623;649;46021;-66
2023/06/10 09:44:44;;;;;;;;;5.67;5.67;;;;;29.02;46.24;100325.19;146619;630;47012;-65
2023/06/10 09:47:43;;;;;;;;;10.00;8.00;;;;;29.02;47.06;100321.66;146624;570;46010;-65
2023/06/10 09:50:56;;;;;;;;;7.00;5.33;;;;;29.11;47.22;100321.38;146617;597;46918;-65
2023/06/10 09:54:14;;;;;;;;;9.00;9.00;;;;;29.13;48.14;100317.72;146623;566;46010;-65
2023/06/10 09:57:26;;;;;;;;;5.33;5.33;;;;;28.84;47.79;100248.34;146618;608;46918;-67
2023/06/10 10:00:29;;;;;;;;;8.00;8.00;;;;;29.19;47.32;100311.28;146623;653;46020;-65
2023/06/10 10:03:52;;;;;;;;;9.00;9.00;;;;;29.26;47.48;100314.66;146617;641;46012;-65
2023/06/10 10:07:04;;;;;;;;;9.00;9.00;;;;;29.16;45.87;100306.06;146618;564;47022;-65
2023/06/10 10:10:14;;;;;;;;;9.00;8.00;;;;;28.97;46.27;100297.72;146618;603;46016;-65
2023/06/10 10:13:16;;;;;;;;;9.00;8.67;;;;;27.93;47.65;100131.09;146621;609;47010;-66
2023/06/10 10:16:19;;;;;;;;;10.00;9.75;;;;;29.02;47.22;100298.50;146617;614;46016;-65
2023/06/10 10:19:58;;;;;;;;;11.33;10.67;;;;;28.10;47.73;100122.59;146623;564;46010;-67
2023/06/10 10:23:05;;;;;;;;;11.33;11.33;;;;;29.11;47.72;100292.00;146612;591;47012;-65
2023/06/10 10:26:05;;;;;;;;;9.50;9.00;;;;;29.10;47.72;100293.78;146613;628;46021;-65
2023/06/10 10:29:41;;;;;;;;;8.33;8.33;;;;;29.11;47.85;100273.31;146617;577;47012;-65
2023/06/10 10:33:31;;;;;;;;;10.00;8.67;;;;;29.27;48.05;100277.22;146621;651;46020;-63
2023/06/10 10:36:26;;;;;;;;;9.67;8.67;;;;;29.51;46.25;100290.69;146622;563;46012;-68
2023/06/10 10:39:32;;;;;;;;;;;;;;;;;;;;;
2023/06/10 10:42:37;;;;;;;;;8.00;8.00;;;;;29.59;45.03;100291.28;146620;607;46012;-67
2023/06/10 10:45:40;;;;;;;;;7.00;7.00;;;;;29.41;45.17;100291.00;146622;589;47010;-67
2023/06/10 10:48:41;;;;;;;;;8.33;7.67;;;;;29.29;45.83;100286.06;146619;577;45917;-66
2023/06/10 10:52:05;;;;;;;;;7.00;5.33;;;;;29.00;46.19;100258.50;146621;569;46020;-69
2023/06/10 10:55:17;;;;;;;;;8.67;8.00;;;;;29.11;46.69;100289.31;146621;636;46013;-67
2023/06/10 10:58:18;;;;;;;;;9.00;9.00;;;;;29.07;47.13;100275.22;146622;598;46020;-67
2023/06/10 11:01:24;;;;;;;;;11.33;10.33;;;;;29.11;47.10;100286.66;146619;666;46031;-68
2023/06/10 11:04:22;;;;;;;;;8.00;7.00;;;;;28.97;46.38;100281.72;146622;611;46021;-67
2023/06/10 11:07:21;;;;;;;;;8.67;8.67;;;;;28.80;47.04;100274.25;146617;616;46016;-67
2023/06/10 11:10:17;;;;;;;;;8.00;7.00;;;;;28.82;47.78;100275.09;146624;629;46010;-67
2023/06/10 11:13:42;;;;;;;;;9.00;6.67;;;;;28.94;48.04;100269.38;146620;591;46015;-68
2023/06/10 11:16:55;;;;;;;;;8.00;7.33;;;;;29.04;47.49;100261.09;146623;641;46020;-67
2023/06/10 11:20:05;;;;;;;;;8.00;7.00;;;;;27.80;47.51;100032.00;146623;638;46012;-67
2023/06/10 11:23:31;;;;;;;;;8.00;7.67;;;;;28.02;45.75;100060.66;146625;675;46010;-69
2023/06/10 11:26:54;;;;;;;;;7.00;7.00;;;;;28.15;45.59;100069.12;146621;603;45031;-69
2023/06/10 11:30:27;;;;;;;;;8.00;7.67;;;;;29.25;46.03;100255.03;146624;618;46010;-67
2023/06/10 11:33:28;;;;;;;;;10.00;10.00;;;;;29.21;46.74;100250.72;146619;639;46017;-67
2023/06/10 11:36:26;;;;;;;;;9.67;7.67;;;;;29.13;46.85;100242.06;146622;592;46020;-67
2023/06/10 11:39:31;;;;;;;;;10.00;9.33;;;;;29.02;45.82;100244.25;146618;576;46016;-69
2023/06/10 11:42:40;;;;;;;;;11.50;10.25;;;;;28.88;46.80;100236.63;146624;657;46010;-68
2023/06/10 11:45:40;;;;;;;;;8.00;6.67;;;;;28.82;46.99;100229.72;146621;585;46012;-66
2023/06/10 11:48:33;;;;;;;;;7.33;6.67;;;;;28.75;46.09;100239.72;146624;574;47010;-67
2023/06/10 11:51:51;;;;;;;;;7.00;7.00;;;;;28.68;46.51;100237.28;146619;577;46016;-68
2023/06/10 11:54:43;;;;;;;;;7.33;6.33;;;;;28.60;47.58;100231.28;146622;575;46020;-68
2023/06/10 11:57:40;;;;;;;;;8.00;7.00;;;;;28.54;46.84;100227.03;146620;569;46014;-69
2023/06/10 12:00:33;;;;;;;;;8.33;7.67;;;;;28.52;48.97;100218.19;146624;590;46010;-68
2023/06/10 12:03:29;;;;;;;;;11.00;9.00;;;;;28.49;49.61;100216.50;146619;571;46013;-67
2023/06/10 12:06:28;;;;;;;;;7.67;7.00;;;;;28.47;49.79;100210.31;146624;613;47020;-69
2023/06/10 12:09:40;;;;;;;;;8.00;6.33;;;;;28.50;48.71;100212.03;146619;581;46017;-70
2023/06/10 12:12:33;;;;;;;;;6.00;6.00;;;;;28.51;48.21;100211.13;146623;585;46020;-68
2023/06/10 12:15:32;;;;;;;;;9.75;8.50;;;;;28.54;48.51;100201.25;146621;601;46012;-68
2023/06/10 12:18:30;;;;;;;;;7.00;7.00;;;;;28.62;48.57;100198.31;146621;632;47010;-67
2023/06/10 12:21:34;;;;;;;;;7.00;7.00;;;;;28.71;48.54;100195.34;146619;688;46012;-68
2023/06/10 12:25:09;;;;;;;;;8.00;8.00;;;;;28.76;49.97;100190.75;146621;624;46021;-68
2023/06/10 12:28:07;;;;;;;;;8.67;8.00;;;;;28.84;49.72;100197.63;146619;579;46016;-67
2023/06/10 12:31:36;;;;;;;;;10.33;8.00;;;;;28.95;49.15;100190.16;146623;572;46010;-69
2023/06/10 12:34:55;;;;;;;;;;;;;;;;;;;;;
2023/06/10 12:38:10;;;;;;;;;9.67;9.33;;;;;29.02;48.69;100197.06;146622;580;46020;-68
2023/06/10 12:41:20;;;;;;;;;9.67;8.67;;;;;29.00;48.10;100205.09;146619;712;46014;-69
2023/06/10 12:44:22;;;;;;;;;7.33;6.00;;;;;28.92;47.45;100192.94;146622;563;47010;-68
2023/06/10 12:47:26;;;;;;;;;7.33;7.33;;;;;28.84;47.94;100197.63;146621;620;46014;-69
2023/06/10 12:50:36;;;;;;;;;10.00;9.25;;;;;28.80;48.47;100190.66;146620;590;46020;-68
2023/06/10 12:53:46;;;;;;;;;7.75;7.00;;;;;27.62;47.97;99982.78;146621;564;46015;-68
2023/06/10 12:56:56;;;;;;;;;10.00;10.00;;;;;28.72;48.00;100181.12;146624;586;46010;-66
2023/06/10 12:59:56;;;;;;;;;10.33;8.33;;;;;28.69;48.29;100180.31;146618;582;46016;-68
2023/06/10 13:02:57;;;;;;;;;10.00;10.00;;;;;28.61;48.63;100174.38;146620;663;47010;-69
2023/06/10 13:06:00;;;;;;;;;9.33;7.67;;;;;28.51;49.46;100166.66;146619;575;47014;-68
2023/06/10 13:09:02;;;;;;;;;11.75;10.25;;;;;28.51;48.73;100189.78;146620;569;46021;-68
2023/06/10 13:11:56;;;;;;;;;8.00;8.00;;;;;28.49;48.13;100191.62;146619;603;46014;-68
2023/06/10 13:14:53;;;;;;;;;8.33;8.33;;;;;28.46;49.64;100191.72;146623;633;46020;-68
2023/06/10 13:17:53;;;;;;;;;10.00;8.00;;;;;28.46;46.17;100191.72;146620;601;46016;-68
2023/06/10 13:20:56;;;;;;;;;9.33;7.67;;;;;28.42;48.96;100187.41;146621;571;46020;-68
2023/06/10 13:23:56;;;;;;;;;6.00;6.00;;;;;28.39;49.09;100191.00;146620;569;46014;-68
2023/06/10 13:26:53;;;;;;;;;9.67;8.33;;;;;28.27;49.20;100183.37;146624;636;47010;-69
2023/06/10 13:29:45;;;;;;;;;10.67;10.00;;;;;28.14;48.28;100185.53;146621;598;46012;-69
2023/06/10 13:32:56;;;;;;;;;6.00;6.00;;;;;28.01;48.93;100182.38;146623;592;46010;-69
2023/06/10 13:35:57;;;;;;;;;9.00;7.33;;;;;27.90;50.02;100187.13;146616;595;46016;-66
2023/06/10 13:39:05;;;;;;;;;;;;;;;;;;;;;
2023/06/10 13:41:58;;;;;;;;;7.00;5.67;;;;;27.75;49.42;100196.37;146621;584;46012;-69
2023/06/10 13:45:03;;;;;;;;;8.67;7.00;;;;;27.70;49.77;100194.78;146623;639;46020;-68
2023/06/10 13:48:01;;;;;;;;;9.67;9.67;;;;;27.71;49.50;100183.22;146621;654;46016;-68
2023/06/10 13:50:53;;;;;;;;;7.67;7.33;;;;;27.70;49.95;100192.13;146624;626;46010;-68
2023/06/10 13:53:45;;;;;;;;;7.33;7.33;;;;;27.69;49.50;100174.38;146616;604;46017;-68
2023/06/10 13:56:40;;;;;;;;;9.67;9.00;;;;;27.77;49.69;100188.38;146621;667;46020;-68
2023/06/10 13:59:43;;;;;;;;;8.33;7.00;;;;;27.89;48.63;100180.06;146620;570;46012;-68
2023/06/10 14:03:03;;;;;;;;;7.00;6.67;;;;;27.81;46.31;100177.59;146624;632;46010;-68
2023/06/10 14:06:03;;;;;;;;;8.00;8.00;;;;;27.72;45.98;100177.81;146619;626;46016;-68
2023/06/10 14:09:07;;;;;;;;;8.00;8.00;;;;;27.78;48.16;100183.00;146622;599;46011;-67
2023/06/10 14:12:04;;;;;;;;;6.67;6.67;;;;;27.86;46.19;100174.81;146621;578;46012;-68
2023/06/10 14:15:01;;;;;;;;;10.00;8.67;;;;;27.99;44.95;100173.53;146623;572;46013;-68
2023/06/10 14:18:02;;;;;;;;;7.67;6.67;;;;;28.08;44.56;100169.72;146620;639;46921;-68
2023/06/10 14:20:57;;;;;;;;;8.67;8.33;;;;;28.08;45.03;100169.72;146622;644;46012;-69
2023/06/10 14:24:16;;;;;;;;;8.00;7.00;;;;;28.12;45.54;100154.53;146622;583;46013;-68
2023/06/10 14:27:15;;;;;;;;;10.00;9.00;;;;;28.27;47.07;100151.38;146624;575;46010;-68
2023/06/10 14:30:20;;;;;;;;;9.00;9.00;;;;;28.41;46.80;100156.31;146619;587;46016;-69
2023/06/10 14:33:21;;;;;;;;;8.33;8.33;;;;;28.48;44.70;100156.09;146624;589;46010;-68
2023/06/10 14:36:29;;;;;;;;;8.00;6.67;;;;;27.31;46.19;99966.00;146619;616;47012;-68